Time;durP1;ratioP1;P1;durP2;ratioP2;P2;SDS_P1;SDS_P2;PMS_P1;PMS_P2;Temp;Humidity;BMP_temperature;BMP_pressure;BME280_temperature;BME280_humidity;BME280_pressure;Samples;Min_cycle;Max_cycle;Signal;HPM_P1;HPM_P2
2022/02/03 00:00:00;;;;;;;3.78;1.80;;;4.40;99.90;;;;;;5087235;28;20039;-71
2022/02/03 00:02:42;;;;;;;9.98;2.30;;;4.40;99.90;;;;;;5087026;28;20047;-70
2022/02/03 00:05:19;;;;;;;3.58;1.30;;;4.40;99.90;;;;;;5086912;28;20388;-71
2022/02/03 00:07:56;;;;;;;3.67;1.70;;;4.50;99.90;;;;;;5086718;28;20024;-70
2022/02/03 00:10:36;;;;;;;6.80;2.05;;;4.50;99.90;;;;;;5086662;28;20111;-71
2022/02/03 00:24:32;;;;;;;10.82;1.75;;;4.70;99.90;;;;;;5086648;28;20040;-71
2022/02/03 00:27:11;;;;;;;10.35;2.22;;;4.70;99.90;;;;;;5086415;28;20017;-72
2022/02/03 00:30:04;;;;;;;12.98;2.83;;;4.70;99.90;;;;;;5085109;28;20052;-72
2022/02/03 00:38:16;;;;;;;5.93;1.90;;;4.90;99.90;;;;;;5066085;28;20138;-71
2022/02/03 00:51:18;;;;;;;13.50;2.03;;;4.90;99.90;;;;;;5065843;28;20174;-71
2022/02/03 00:53:44;;;;;;;6.43;2.28;;;4.90;99.90;;;;;;5065487;28;20045;-71
2022/02/03 00:56:16;;;;;;;9.05;1.95;;;4.90;99.90;;;;;;5065255;28;20033;-71
2022/02/03 00:59:04;;;;;;;8.88;2.45;;;4.90;99.90;;;;;;5077669;28;20064;-70
2022/02/03 01:01:33;;;;;;;5.43;2.03;;;4.90;99.90;;;;;;5085529;28;20047;-71
2022/02/03 01:04:10;;;;;;;6.97;2.17;;;4.90;99.90;;;;;;5085343;28;20035;-72
2022/02/03 01:06:42;;;;;;;5.57;1.83;;;4.80;99.90;;;;;;5085621;28;20021;-70
2022/02/03 01:09:09;;;;;;;5.55;2.00;;;4.70;99.90;;;;;;5085622;28;20017;-72
2022/02/03 01:11:41;;;;;;;8.05;1.98;;;4.90;99.90;;;;;;5085384;28;20461;-70
2022/02/03 01:14:15;;;;;;;5.80;2.13;;;4.80;99.90;;;;;;5085391;28;20021;-71
2022/02/03 01:44:22;;;;;;;23.20;3.97;;;5.00;99.90;;;;;;5069247;28;20032;-71
2022/02/03 01:47:13;;;;;;;4.65;2.10;;;5.00;99.90;;;;;;5065022;28;20571;-70
2022/02/03 01:51:39;;;;;;;7.95;2.30;;;5.10;99.90;;;;;;5064812;28;20493;-72
2022/02/03 01:52:38;;;;;;;18.60;3.03;;;5.20;99.90;;;;;;5064296;28;20362;-71
2022/02/03 01:55:07;;;;;;;12.40;3.28;;;5.20;99.90;;;;;;5062946;28;20041;-72
2022/02/03 01:57:40;;;;;;;17.27;2.97;;;5.20;99.90;;;;;;5064434;28;20056;-72
2022/02/03 02:00:12;;;;;;;6.38;2.13;;;5.30;99.90;;;;;;5064741;28;20037;-73
2022/02/03 02:02:56;;;;;;;6.65;2.90;;;5.30;99.90;;;;;;5064684;28;20112;-74
2022/02/03 02:05:56;;;;;;;15.50;2.90;;;5.20;99.90;;;;;;5065084;28;20036;-72
2022/02/03 02:09:00;;;;;;;5.10;2.22;;;5.20;99.90;;;;;;5065054;28;20029;-72
2022/02/03 02:11:51;;;;;;;21.52;3.35;;;5.20;99.90;;;;;;5046071;28;20037;-71
2022/02/03 02:40:05;;;;;;;35.97;5.57;;;5.20;99.90;;;;;;5064789;28;20064;-72
2022/02/03 02:42:45;;;;;;;11.00;4.55;;;5.20;99.90;;;;;;5035650;28;20037;-71
2022/02/03 02:45:15;;;;;;;19.70;4.63;;;5.20;99.90;;;;;;5068559;28;20025;-72
2022/02/03 02:48:14;;;;;;;13.73;3.70;;;5.20;99.90;;;;;;5068199;28;20032;-72
2022/02/03 02:51:01;;;;;;;13.20;4.82;;;5.20;99.90;;;;;;5068792;28;20053;-73
2022/02/03 02:56:49;;;;;;;15.00;5.72;;;5.30;99.90;;;;;;5067907;28;20075;-73
2022/02/03 03:03:12;;;;;;;10.02;4.65;;;5.40;99.90;;;;;;5068161;28;20029;-73
2022/02/03 03:35:44;;;;;;;19.00;7.35;;;5.60;99.90;;;;;;5086496;28;20040;-72
2022/02/03 03:38:17;;;;;;;18.65;6.43;;;5.60;99.90;;;;;;5087340;28;20025;-72
2022/02/03 03:40:48;;;;;;;25.02;7.93;;;5.60;99.90;;;;;;5087154;28;20028;-72
2022/02/03 03:43:28;;;;;;;18.40;8.10;;;5.60;99.90;;;;;;5087173;28;20036;-71
2022/02/03 03:45:55;;;;;;;15.45;6.68;;;5.60;99.90;;;;;;5087340;28;20025;-74
2022/02/03 03:48:34;;;;;;;16.63;6.82;;;5.70;99.90;;;;;;5087382;28;20556;-74
2022/02/03 03:51:03;;;;;;;17.02;6.95;;;5.70;99.90;;;;;;5086270;28;20027;-72
2022/02/03 03:53:43;;;;;;;19.92;7.50;;;5.70;99.90;;;;;;5066925;28;20075;-73
2022/02/03 03:56:24;;;;;;;10.85;5.00;;;5.70;99.90;;;;;;5065569;28;20033;-69
2022/02/03 03:59:19;;;;;;;17.27;7.30;;;5.70;99.90;;;;;;5067121;28;20053;-68
2022/02/03 04:29:14;;;;;;;27.98;8.98;;;6.00;99.90;;;;;;5066586;28;20043;-72
2022/02/03 04:40:44;;;;;;;26.13;8.35;;;6.10;99.90;;;;;;5066391;28;20039;-70
2022/02/03 04:53:23;;;;;;;31.80;9.13;;;6.30;99.90;;;;;;5047571;28;20043;-72
2022/02/03 04:55:46;;;;;;;28.42;8.30;;;6.30;99.90;;;;;;5064915;28;20063;-71
2022/02/03 05:04:29;;;;;;;24.38;8.20;;;6.40;99.90;;;;;;5065484;28;20115;-70
2022/02/03 05:23:32;;;;;;;40.33;11.23;;;6.70;99.90;;;;;;5065330;28;20035;-71
2022/02/03 06:12:47;;;;;;;;;;;7.10;99.90;;;;;;5065291;28;20036;-71
2022/02/03 06:15:18;;;;;;;41.38;11.45;;;7.10;99.90;;;;;;5064236;28;19912;-70
2022/02/03 06:23:48;;;;;;;24.65;9.30;;;7.20;99.90;;;;;;5064249;28;20032;-69
2022/02/03 06:29:04;;;;;;;28.13;11.25;;;7.20;99.90;;;;;;5064344;28;20413;-71
2022/02/03 06:31:34;;;;;;;44.15;11.85;;;7.20;99.90;;;;;;5064303;28;20056;-70
2022/02/03 06:34:00;;;;;;;42.00;11.32;;;7.30;99.90;;;;;;5076442;28;20025;-69
2022/02/03 06:36:27;;;;;;;51.63;12.05;;;7.30;99.90;;;;;;5084712;28;20079;-69
2022/02/03 06:38:53;;;;;;;30.98;11.52;;;7.30;99.90;;;;;;5072769;28;20032;-71
2022/02/03 06:41:19;;;;;;;30.27;10.55;;;7.30;99.90;;;;;;5084563;28;20089;-71
2022/02/03 06:43:45;;;;;;;40.28;12.45;;;7.30;99.90;;;;;;5082864;28;20825;-69
2022/02/03 06:46:12;;;;;;;39.55;11.82;;;7.30;99.90;;;;;;5084326;28;20029;-69
2022/02/03 06:48:40;;;;;;;46.58;12.73;;;7.40;99.90;;;;;;5066206;28;20029;-69
2022/02/03 06:51:12;;;;;;;34.25;11.15;;;7.40;99.90;;;;;;5068741;28;20021;-69
2022/02/03 06:53:41;;;;;;;40.72;10.52;;;7.40;99.90;;;;;;5063942;28;20037;-70
2022/02/03 06:56:12;;;;;;;36.50;12.63;;;7.40;99.90;;;;;;5064007;28;20093;-69
2022/02/03 06:58:52;;;;;;;35.13;11.15;;;7.40;99.90;;;;;;5068790;28;20074;-70
2022/02/03 07:01:23;;;;;;;46.38;13.55;;;7.40;99.90;;;;;;5064118;28;20055;-71
2022/02/03 07:04:01;;;;;;;33.25;11.63;;;7.50;99.90;;;;;;5064328;28;20059;-70
2022/02/03 07:06:32;;;;;;;38.08;11.25;;;7.50;99.90;;;;;;5065773;28;20033;-72
2022/02/03 07:09:06;;;;;;;27.65;9.48;;;7.50;99.90;;;;;;5075985;28;20027;-72
2022/02/03 07:11:32;;;;;;;36.60;11.93;;;7.50;99.90;;;;;;5064899;28;20120;-75
2022/02/03 07:13:58;;;;;;;30.42;11.35;;;7.50;99.90;;;;;;5077145;28;20033;-73
2022/02/03 07:16:23;;;;;;;35.28;10.27;;;7.50;99.90;;;;;;5082577;28;20040;-75
2022/02/03 07:18:49;;;;;;;34.95;11.52;;;7.60;99.90;;;;;;5080261;28;20029;-73
2022/02/03 07:21:14;;;;;;;33.78;11.18;;;7.50;99.90;;;;;;5049196;28;20029;-73
2022/02/03 07:23:40;;;;;;;36.85;10.05;;;7.60;99.90;;;;;;5065979;28;20375;-74
2022/02/03 07:26:06;;;;;;;28.55;10.20;;;7.60;99.90;;;;;;5074135;28;20412;-74
2022/02/03 07:28:34;;;;;;;43.78;11.32;;;7.60;99.90;;;;;;5063231;28;20043;-72
2022/02/03 07:31:00;;;;;;;37.38;11.98;;;7.60;99.90;;;;;;5065743;28;20021;-71
2022/02/03 07:33:26;;;;;;;40.28;11.55;;;7.70;99.90;;;;;;5072341;28;20025;-74
2022/02/03 07:35:52;;;;;;;42.05;12.10;;;7.60;99.90;;;;;;5087640;28;20123;-73
2022/02/03 07:38:21;;;;;;;21.92;9.68;;;7.70;99.90;;;;;;5086534;28;20078;-74
2022/02/03 07:40:48;;;;;;;38.25;11.45;;;7.70;99.90;;;;;;5057365;28;20079;-72
2022/02/03 07:43:14;;;;;;;33.95;10.20;;;7.70;99.90;;;;;;5084853;28;20052;-73
2022/02/03 07:45:40;;;;;;;38.65;11.27;;;7.70;99.90;;;;;;5082646;28;20024;-74
2022/02/03 07:48:05;;;;;;;35.63;11.35;;;7.70;99.90;;;;;;5079404;28;20024;-71
2022/02/03 07:50:31;;;;;;;29.15;11.40;;;7.70;99.90;;;;;;5067435;28;20031;-71
2022/02/03 07:52:57;;;;;;;31.05;9.95;;;7.70;99.90;;;;;;5066948;28;20055;-73
2022/02/03 07:55:23;;;;;;;42.97;11.60;;;7.80;99.90;;;;;;5066867;28;20338;-72
2022/02/03 07:57:51;;;;;;;34.28;11.02;;;7.80;99.90;;;;;;5067167;28;20571;-72
2022/02/03 08:00:19;;;;;;;34.53;10.88;;;7.80;99.90;;;;;;5067857;28;20108;-72
2022/02/03 08:02:45;;;;;;;42.42;11.43;;;7.80;99.90;;;;;;5068021;28;20029;-71
2022/02/03 08:05:17;;;;;;;41.17;10.63;;;7.80;99.90;;;;;;5081687;28;20021;-72
2022/02/03 08:08:39;;;;;;;33.42;11.18;;;7.80;99.90;;;;;;5086971;28;20040;-72
2022/02/03 08:10:47;;;;;;;34.38;11.30;;;7.90;99.90;;;;;;5065523;28;20109;-75
2022/02/03 08:13:19;;;;;;;36.05;11.85;;;7.90;99.90;;;;;;5072366;28;20044;-72
2022/02/03 08:15:45;;;;;;;39.17;11.25;;;7.90;99.90;;;;;;5051547;28;20517;-73
2022/02/03 08:18:17;;;;;;;32.22;11.50;;;7.90;99.90;;;;;;5085823;28;20047;-73
2022/02/03 08:20:50;;;;;;;42.13;14.05;;;7.90;99.90;;;;;;5068918;28;20039;-73
2022/02/03 08:26:09;;;;;;;31.50;11.88;;;7.90;99.90;;;;;;5066225;28;20032;-71
2022/02/03 08:31:09;;;;;;;33.22;11.63;;;7.90;99.90;;;;;;5086318;28;20036;-72
2022/02/03 08:33:35;;;;;;;42.58;12.73;;;7.90;99.90;;;;;;5086168;28;20028;-73
2022/02/03 08:36:04;;;;;;;43.78;13.23;;;7.90;99.90;;;;;;5086181;28;20036;-74
2022/02/03 08:41:08;;;;;;;43.42;13.60;;;7.90;99.90;;;;;;5066435;28;20060;-72
2022/02/03 08:43:36;;;;;;;45.90;14.38;;;8.00;99.90;;;;;;5083354;28;20025;-73
2022/02/03 08:46:05;;;;;;;52.50;16.05;;;8.00;99.90;;;;;;5085616;28;20107;-70
2022/02/03 08:48:32;;;;;;;50.05;15.50;;;8.00;99.90;;;;;;5079040;28;20024;-73
2022/02/03 08:51:00;;;;;;;54.55;13.68;;;7.90;99.90;;;;;;5083753;28;20033;-75
2022/02/03 08:53:34;;;;;;;42.17;16.67;;;8.00;99.90;;;;;;5065973;28;20041;-75
2022/02/03 08:59:31;;;;;;;60.10;17.30;;;8.00;99.90;;;;;;5066185;28;20429;-73
2022/02/03 09:41:47;;;;;;;46.60;13.48;;;8.00;99.90;;;;;;5065203;28;20033;-70
2022/02/03 10:00:32;;;;;;;33.20;11.57;;;8.00;99.90;;;;;;5064658;28;20031;-73
2022/02/03 10:03:14;;;;;;;40.10;12.55;;;7.90;99.90;;;;;;5084965;28;20042;-73
2022/02/03 10:05:55;;;;;;;39.13;12.93;;;7.90;99.90;;;;;;5065720;28;20032;-73
2022/02/03 10:08:23;;;;;;;42.15;12.00;;;7.90;99.90;;;;;;5064772;28;20029;-71
2022/02/03 10:10:48;;;;;;;33.30;10.43;;;7.90;99.90;;;;;;5064613;28;20036;-72
2022/02/03 10:13:22;;;;;;;34.22;12.18;;;7.90;99.90;;;;;;5063655;28;20044;-72
2022/02/03 10:16:03;;;;;;;31.33;10.18;;;7.90;99.90;;;;;;5071457;28;20043;-73
2022/02/03 10:18:30;;;;;;;32.53;10.55;;;7.90;99.90;;;;;;5084219;28;20451;-73
2022/02/03 10:20:59;;;;;;;25.13;10.40;;;7.90;99.90;;;;;;5084122;28;20036;-74
2022/02/03 10:23:26;;;;;;;24.40;8.75;;;8.00;99.90;;;;;;5080651;28;20033;-72
2022/02/03 10:25:57;;;;;;;33.42;10.57;;;8.00;99.90;;;;;;5077010;28;20039;-70
2022/02/03 10:28:27;;;;;;;33.30;9.90;;;7.90;99.90;;;;;;5084602;28;20070;-72
2022/02/03 10:31:01;;;;;;;24.98;10.32;;;7.90;99.90;;;;;;5080344;28;20044;-71
2022/02/03 10:33:32;;;;;;;23.63;10.27;;;7.90;99.90;;;;;;5046460;28;20021;-75
2022/02/03 10:36:03;;;;;;;34.80;9.68;;;7.90;99.90;;;;;;5046453;28;20053;-74
2022/02/03 10:49:17;;;;;;;30.65;8.43;;;7.80;99.90;;;;;;5084015;28;20043;-73
2022/02/03 11:00:26;;;;;;;34.42;7.68;;;7.80;99.90;;;;;;5070754;28;20523;-74
2022/02/03 11:03:09;;;;;;;19.38;7.90;;;7.80;99.90;;;;;;5071569;28;20059;-73
2022/02/03 11:08:24;;;;;;;21.02;7.35;;;7.80;99.90;;;;;;5075594;28;20031;-73
2022/02/03 11:10:56;;;;;;;19.02;7.65;;;7.90;99.90;;;;;;5064123;28;20036;-74
2022/02/03 11:13:27;;;;;;;16.90;7.03;;;7.90;99.90;;;;;;5050848;28;20039;-72
2022/02/03 11:16:02;;;;;;;18.05;7.22;;;7.90;99.90;;;;;;5081965;28;20059;-73
2022/02/03 11:18:30;;;;;;;19.20;7.00;;;7.90;99.90;;;;;;5087404;28;20028;-74
2022/02/03 11:20:59;;;;;;;15.93;6.28;;;7.90;99.90;;;;;;5084708;28;20032;-75
2022/02/03 11:48:15;;;;;;;15.63;6.35;;;7.90;99.90;;;;;;5087292;28;20086;-74
2022/02/03 12:01:32;;;;;;;12.25;4.88;;;7.80;99.90;;;;;;5079138;28;20020;-72
2022/02/03 12:18:05;;;;;;;15.07;5.25;;;7.80;99.90;;;;;;5081977;28;20025;-74
2022/02/03 12:20:39;;;;;;;19.33;7.82;;;7.80;99.90;;;;;;5066753;28;20021;-74
2022/02/03 12:23:42;;;;;;;17.17;5.80;;;7.80;99.90;;;;;;5066374;28;20056;-75
2022/02/03 12:26:16;;;;;;;10.60;5.10;;;7.80;99.90;;;;;;5051276;28;20381;-72
2022/02/03 12:28:51;;;;;;;15.98;6.93;;;7.80;99.90;;;;;;5085606;28;20044;-74
2022/02/03 12:39:11;;;;;;;11.85;4.25;;;7.80;99.90;;;;;;5066326;28;20118;-75
2022/02/03 12:41:42;;;;;;;10.32;4.55;;;7.90;99.90;;;;;;5066208;28;20137;-74
2022/02/03 12:44:24;;;;;;;9.85;4.32;;;7.90;99.90;;;;;;5066168;28;20053;-73
2022/02/03 12:46:50;;;;;;;13.65;4.50;;;7.90;99.90;;;;;;5065381;28;20032;-73
2022/02/03 12:49:20;;;;;;;7.82;3.67;;;7.90;99.90;;;;;;5065239;28;20891;-72
2022/02/03 12:51:45;;;;;;;13.27;5.00;;;7.90;99.90;;;;;;5063724;28;20052;-75
2022/02/03 12:54:13;;;;;;;10.93;4.05;;;8.00;99.90;;;;;;5064863;28;20061;-74
2022/02/03 12:56:39;;;;;;;9.93;4.55;;;8.00;99.90;;;;;;5065222;28;20040;-75
2022/02/03 12:59:09;;;;;;;11.15;4.03;;;8.00;99.90;;;;;;5065076;28;20040;-74
2022/02/03 13:01:38;;;;;;;12.73;5.22;;;8.00;99.90;;;;;;5065028;28;20033;-73
2022/02/03 13:04:15;;;;;;;19.80;4.97;;;8.10;99.90;;;;;;5082059;28;20028;-75
2022/02/03 13:06:55;;;;;;;10.40;4.13;;;8.00;99.90;;;;;;5066714;28;20496;-74
2022/02/03 13:09:40;;;;;;;10.57;4.50;;;8.00;99.90;;;;;;5065257;28;20029;-71
2022/02/03 13:12:16;;;;;;;9.80;4.13;;;8.10;99.90;;;;;;5064662;28;20082;-75
2022/02/03 13:14:53;;;;;;;14.63;4.82;;;8.10;99.90;;;;;;5063459;28;20052;-72
2022/02/03 13:17:25;;;;;;;13.70;4.55;;;8.10;99.90;;;;;;5047111;28;20017;-74
2022/02/03 13:20:00;;;;;;;9.40;4.63;;;8.10;99.90;;;;;;5046787;28;20600;-74
2022/02/03 13:22:35;;;;;;;10.32;4.05;;;8.00;99.90;;;;;;5065039;28;20021;-73
2022/02/03 13:25:08;;;;;;;9.55;4.38;;;8.10;99.90;;;;;;5074580;28;20044;-74
2022/02/03 13:27:47;;;;;;;11.43;3.70;;;8.00;99.90;;;;;;5066166;28;20074;-73
2022/02/03 13:30:38;;;;;;;12.90;4.47;;;8.00;99.90;;;;;;5084457;28;20024;-73
2022/02/03 13:33:05;;;;;;;11.38;3.92;;;8.10;99.90;;;;;;5084460;28;20104;-75
2022/02/03 13:38:49;;;;;;;9.77;3.97;;;8.10;99.90;;;;;;5077910;28;20047;-73
2022/02/03 13:41:23;;;;;;;9.75;4.25;;;8.00;99.90;;;;;;5066300;28;20496;-72
2022/02/03 13:43:49;;;;;;;13.35;3.67;;;8.00;99.90;;;;;;5057167;28;20393;-74
2022/02/03 13:46:29;;;;;;;9.80;5.25;;;8.00;99.90;;;;;;5078092;28;20028;-73
2022/02/03 13:48:58;;;;;;;10.30;4.35;;;8.10;99.90;;;;;;5084616;28;20028;-73
2022/02/03 13:51:27;;;;;;;11.55;4.57;;;8.10;99.90;;;;;;5064601;28;20115;-72
2022/02/03 14:12:00;;;;;;;8.32;4.15;;;8.20;99.90;;;;;;5084009;28;20040;-73
2022/02/03 14:14:28;;;;;;;14.27;4.57;;;8.00;99.90;;;;;;5083564;28;20044;-73
2022/02/03 14:22:00;;;;;;;10.35;4.88;;;7.90;99.90;;;;;;5075879;28;20048;-73
2022/02/03 14:29:45;;;;;;;12.82;5.00;;;7.70;99.90;;;;;;5064217;28;20092;-72
2022/02/03 14:32:15;;;;;;;12.85;5.72;;;7.70;99.90;;;;;;5065205;28;20018;-73
2022/02/03 14:34:41;;;;;;;11.68;4.55;;;7.70;99.90;;;;;;5079168;28;20033;-75
2022/02/03 14:37:23;;;;;;;11.82;4.72;;;7.70;99.90;;;;;;5072200;28;20104;-73
2022/02/03 14:42:17;;;;;;;11.07;5.55;;;7.60;99.90;;;;;;5077824;28;20040;-72
2022/02/03 14:44:42;;;;;;;17.20;4.90;;;7.60;99.90;;;;;;5077448;28;20037;-74
2022/02/03 14:47:09;;;;;;;11.25;4.90;;;7.60;99.90;;;;;;5073975;28;20115;-73
2022/02/03 14:49:37;;;;;;;15.23;5.10;;;7.60;99.90;;;;;;5075902;28;20020;-73
2022/02/03 15:00:22;;;;;;;16.17;6.10;;;7.50;99.90;;;;;;5078360;28;20031;-73
2022/02/03 15:02:49;;;;;;;12.57;5.10;;;7.50;99.90;;;;;;5076736;28;20362;-72
2022/02/03 15:05:23;;;;;;;13.40;4.97;;;7.50;99.90;;;;;;5077622;28;20033;-73
2022/02/03 15:07:55;;;;;;;10.38;4.72;;;7.50;99.90;;;;;;5075587;28;20707;-73
2022/02/03 15:15:28;;;;;;;10.43;4.47;;;7.50;99.90;;;;;;5087852;28;20036;-71
2022/02/03 15:17:55;;;;;;;8.73;3.72;;;7.50;99.90;;;;;;5086308;28;20108;-73
2022/02/03 15:20:20;;;;;;;15.38;5.60;;;7.50;99.90;;;;;;5080818;28;20544;-70
2022/02/03 15:22:46;;;;;;;12.30;4.68;;;7.50;99.90;;;;;;5073242;28;20024;-72
2022/02/03 15:25:23;;;;;;;12.98;5.85;;;7.50;99.90;;;;;;5082664;28;20052;-72
2022/02/03 15:27:54;;;;;;;9.65;5.13;;;7.50;99.90;;;;;;5082295;28;20503;-70
2022/02/03 15:30:22;;;;;;;10.50;5.30;;;7.50;99.90;;;;;;5081834;28;20438;-72
2022/02/03 15:32:49;;;;;;;10.73;3.92;;;7.50;99.90;;;;;;5085206;28;20021;-71
2022/02/03 15:35:38;;;;;;;16.98;7.05;;;7.40;99.90;;;;;;5084761;28;20028;-72
2022/02/03 15:38:06;;;;;;;15.55;6.05;;;7.50;99.90;;;;;;5086841;28;20024;-71
2022/02/03 15:40:40;;;;;;;13.60;5.97;;;7.40;99.90;;;;;;5065785;28;20239;-73
2022/02/03 15:43:10;;;;;;;13.10;5.40;;;7.40;99.90;;;;;;5076979;28;20033;-71
2022/02/03 15:45:39;;;;;;;12.30;5.80;;;7.40;99.90;;;;;;5081268;28;20029;-70
2022/02/03 15:48:18;;;;;;;24.75;7.55;;;7.40;99.90;;;;;;5074955;28;20052;-72
2022/02/03 15:56:30;;;;;;;10.43;4.82;;;7.30;99.90;;;;;;5082121;28;20071;-73
2022/02/03 16:17:51;;;;;;;12.00;5.38;;;7.30;99.90;;;;;;5086324;28;20028;-73
2022/02/03 16:20:28;;;;;;;12.15;6.63;;;7.30;99.90;;;;;;5069415;28;20148;-72
2022/02/03 16:23:13;;;;;;;12.57;4.82;;;7.30;99.90;;;;;;5088348;28;20047;-74
2022/02/03 16:53:05;;;;;;;20.85;7.93;;;7.00;99.90;;;;;;5093534;28;20218;-71
2022/02/03 16:55:36;;;;;;;20.65;7.22;;;7.00;99.90;;;;;;5101383;28;20180;-72
2022/02/03 16:58:05;;;;;;;15.05;6.32;;;7.00;99.90;;;;;;5075680;28;20029;-74
2022/02/03 17:00:34;;;;;;;22.17;8.93;;;7.10;99.90;;;;;;5055654;28;20024;-72
2022/02/03 17:03:01;;;;;;;23.35;8.50;;;7.00;99.90;;;;;;5053582;28;20078;-72
2022/02/03 17:05:33;;;;;;;25.20;9.95;;;7.00;99.90;;;;;;5082278;28;20050;-72
2022/02/03 17:07:59;;;;;;;19.92;8.55;;;7.10;99.90;;;;;;5081223;28;20393;-70
2022/02/03 17:10:27;;;;;;;28.42;8.48;;;7.10;99.90;;;;;;5077913;28;20024;-71
2022/02/03 17:12:53;;;;;;;32.03;11.82;;;7.00;99.90;;;;;;5085615;28;20025;-73
2022/02/03 17:15:20;;;;;;;21.98;7.65;;;7.10;99.90;;;;;;5085384;28;20086;-72
2022/02/03 17:17:50;;;;;;;19.88;7.82;;;7.00;99.90;;;;;;5084216;28;20024;-72
2022/02/03 17:20:20;;;;;;;21.42;7.25;;;7.00;99.90;;;;;;5085165;28;20646;-70
2022/02/03 17:22:49;;;;;;;17.25;8.13;;;7.00;99.90;;;;;;5074471;28;20029;-70
2022/02/03 17:26:22;;;;;;;17.33;6.65;;;7.00;99.90;;;;;;5065336;28;20041;-71
2022/02/03 18:08:54;;;;;;;18.35;8.25;;;6.90;99.90;;;;;;5029656;28;20079;-71
2022/02/03 18:35:58;;;;;;;25.55;9.10;;;6.80;99.90;;;;;;5039837;28;20043;-72
2022/02/03 18:55:04;;;;;;;20.30;7.28;;;6.70;99.90;;;;;;5061332;28;20055;-73
2022/02/03 18:57:37;;;;;;;24.17;8.60;;;6.60;99.90;;;;;;5059947;28;20123;-73
2022/02/03 19:16:33;;;;;;;24.92;9.25;;;6.70;99.90;;;;;;5066981;28;20039;-72
2022/02/03 20:07:58;;;;;;;38.13;10.95;;;6.60;99.90;;;;;;5085915;28;20040;-72
2022/02/03 20:10:32;;;;;;;30.67;9.80;;;6.60;99.90;;;;;;5084957;28;20052;-72
2022/02/03 20:12:57;;;;;;;18.15;6.82;;;6.70;99.90;;;;;;5059837;28;20033;-73
2022/02/03 20:15:25;;;;;;;24.52;7.10;;;6.70;99.90;;;;;;5070973;28;20052;-73
2022/02/03 20:17:51;;;;;;;21.25;7.90;;;6.70;99.90;;;;;;5081219;28;20033;-71
2022/02/03 20:20:17;;;;;;;25.55;9.13;;;6.70;99.90;;;;;;5085006;28;20024;-72
2022/02/03 20:22:43;;;;;;;22.52;8.13;;;6.70;99.90;;;;;;5070462;28;20045;-72
2022/02/03 20:25:10;;;;;;;24.70;9.55;;;6.60;99.90;;;;;;5080340;28;20080;-73
2022/02/03 20:27:36;;;;;;;26.98;7.85;;;6.60;99.90;;;;;;5085777;28;20023;-73
2022/02/03 20:30:05;;;;;;;28.75;9.20;;;6.60;99.90;;;;;;5070839;28;20028;-74
2022/02/03 20:32:31;;;;;;;20.83;7.85;;;6.60;99.90;;;;;;5073637;28;20029;-72
2022/02/03 20:34:59;;;;;;;20.98;8.48;;;6.60;99.90;;;;;;5071214;28;20050;-75
2022/02/03 20:37:26;;;;;;;22.73;8.80;;;6.60;99.90;;;;;;5069361;28;20416;-74
2022/02/03 20:39:52;;;;;;;20.90;7.97;;;6.60;99.90;;;;;;5068621;28;20029;-72
2022/02/03 20:42:18;;;;;;;23.42;8.15;;;6.50;99.90;;;;;;5084778;28;20032;-72
2022/02/03 20:44:46;;;;;;;25.50;7.90;;;6.60;99.90;;;;;;5064515;28;20059;-71
2022/02/03 20:47:12;;;;;;;20.67;8.63;;;6.70;99.90;;;;;;5080258;28;20032;-70
2022/02/03 20:49:39;;;;;;;21.85;7.93;;;6.60;99.90;;;;;;5080130;28;20028;-71
2022/02/03 20:52:04;;;;;;;23.52;8.18;;;6.60;99.90;;;;;;5079170;28;20044;-71
2022/02/03 20:54:30;;;;;;;22.85;7.95;;;6.70;99.90;;;;;;5074119;28;20497;-72
2022/02/03 20:56:57;;;;;;;21.52;9.60;;;6.60;99.90;;;;;;5093665;28;20036;-73
2022/02/03 20:59:28;;;;;;;26.20;8.80;;;6.60;99.90;;;;;;5093192;28;20376;-71
2022/02/03 21:01:56;;;;;;;17.70;7.40;;;6.60;99.90;;;;;;5096796;28;20025;-70
2022/02/03 21:04:47;;;;;;;28.92;7.68;;;6.60;99.90;;;;;;5076436;28;20054;-72
2022/02/03 21:07:14;;;;;;;22.42;8.30;;;6.70;99.90;;;;;;5085320;28;20027;-72
2022/02/03 21:09:42;;;;;;;17.17;7.57;;;6.60;99.90;;;;;;5099011;28;20047;-73
2022/02/03 21:12:09;;;;;;;16.50;7.07;;;6.60;99.90;;;;;;5100318;28;20052;-71
2022/02/03 21:14:35;;;;;;;23.75;8.07;;;6.70;99.90;;;;;;5079209;28;20025;-71
2022/02/03 21:17:01;;;;;;;34.90;9.18;;;6.70;99.90;;;;;;5072465;28;20031;-72
2022/02/03 21:19:28;;;;;;;28.00;8.65;;;6.70;99.90;;;;;;5075673;28;20025;-73
2022/02/03 21:21:55;;;;;;;22.02;7.93;;;6.70;99.90;;;;;;5076195;28;20028;-71
2022/02/03 21:24:20;;;;;;;20.40;8.63;;;6.70;99.90;;;;;;5073482;28;20025;-71
2022/02/03 21:26:51;;;;;;;23.55;9.48;;;6.70;99.90;;;;;;5077614;28;20024;-73
2022/02/03 21:29:18;;;;;;;25.05;8.80;;;6.70;99.90;;;;;;5074333;28;20035;-71
2022/02/03 21:31:43;;;;;;;22.75;8.70;;;6.70;99.90;;;;;;5056917;28;20442;-72
2022/02/03 21:34:14;;;;;;;19.85;7.53;;;6.70;99.90;;;;;;5075711;28;20033;-71
2022/02/03 21:36:41;;;;;;;20.77;8.63;;;6.70;99.90;;;;;;5073286;28;20060;-70
2022/02/03 21:39:07;;;;;;;17.60;7.65;;;6.70;99.90;;;;;;5079055;28;20037;-71
2022/02/03 21:41:34;;;;;;;19.58;7.35;;;6.70;99.90;;;;;;5076060;28;20113;-72
2022/02/03 21:44:00;;;;;;;23.25;8.35;;;6.70;99.90;;;;;;5074778;28;20025;-72
2022/02/03 21:46:26;;;;;;;26.10;8.13;;;6.60;99.90;;;;;;5075085;28;20021;-74
2022/02/03 21:48:52;;;;;;;17.25;7.40;;;6.60;99.90;;;;;;5072649;28;20386;-73
2022/02/03 21:51:24;;;;;;;19.05;8.07;;;6.60;99.90;;;;;;5074879;28;20461;-72
2022/02/03 21:53:50;;;;;;;21.77;7.40;;;6.60;99.90;;;;;;5074777;28;20070;-72
2022/02/03 21:56:21;;;;;;;20.95;7.93;;;6.60;99.90;;;;;;5072395;28;20069;-72
2022/02/03 21:58:47;;;;;;;26.55;9.27;;;6.60;99.90;;;;;;5073039;28;20088;-71
2022/02/03 22:01:13;;;;;;;22.77;7.80;;;6.50;99.90;;;;;;5074985;28;20056;-72
2022/02/03 22:03:40;;;;;;;23.38;7.38;;;6.50;99.90;;;;;;5053329;28;20037;-70
2022/02/03 22:06:05;;;;;;;20.20;8.50;;;6.50;99.90;;;;;;5063383;28;20032;-70
2022/02/03 22:08:31;;;;;;;24.88;7.85;;;6.50;99.90;;;;;;5046877;28;20021;-71
2022/02/03 22:10:59;;;;;;;21.73;8.45;;;6.50;99.90;;;;;;5064987;28;20040;-72
2022/02/03 22:13:34;;;;;;;24.00;9.25;;;6.60;99.90;;;;;;5065532;28;20032;-71
2022/02/03 22:16:05;;;;;;;17.02;8.13;;;6.50;99.90;;;;;;5079622;28;20037;-71
2022/02/03 22:18:31;;;;;;;19.20;8.13;;;6.50;99.90;;;;;;5069428;28;20112;-72
2022/02/03 22:21:02;;;;;;;23.48;9.35;;;6.60;99.90;;;;;;5065246;28;20029;-73
2022/02/03 22:29:28;;;;;;;24.77;8.23;;;6.60;99.90;;;;;;5018492;28;20042;-72
2022/02/03 22:49:45;;;;;;;22.92;8.38;;;6.70;99.90;;;;;;5066800;28;20037;-72
2022/02/03 22:52:16;;;;;;;19.77;8.07;;;6.70;99.90;;;;;;5064367;28;20382;-72
2022/02/03 22:54:42;;;;;;;18.88;8.48;;;6.60;99.90;;;;;;5063942;28;20104;-71
2022/02/03 22:57:08;;;;;;;17.08;7.30;;;6.70;99.90;;;;;;5078635;28;20030;-71
2022/02/03 23:02:22;;;;;;;21.15;8.02;;;6.60;99.90;;;;;;5068508;28;20060;-72
2022/02/03 23:04:48;;;;;;;18.20;7.57;;;6.70;99.90;;;;;;5068302;28;20493;-72
2022/02/03 23:07:23;;;;;;;19.60;8.32;;;6.70;99.90;;;;;;5068087;28;20028;-72
2022/02/03 23:10:00;;;;;;;24.05;8.07;;;6.60;99.90;;;;;;5068181;28;20025;-72
2022/02/03 23:15:42;;;;;;;22.27;9.13;;;6.70;99.90;;;;;;5046079;28;20095;-71
2022/02/03 23:18:24;;;;;;;26.75;8.38;;;6.70;99.90;;;;;;5065598;28;20044;-72
2022/02/03 23:21:14;;;;;;;22.90;8.57;;;6.80;99.90;;;;;;5082015;28;20034;-72
2022/02/03 23:23:35;;;;;;;22.92;8.25;;;6.70;99.90;;;;;;5087839;28;20066;-73
2022/02/03 23:26:01;;;;;;;22.55;9.40;;;6.70;99.90;;;;;;5070130;28;20025;-73
2022/02/03 23:28:31;;;;;;;21.05;7.65;;;6.70;99.90;;;;;;5069826;28;20500;-74
2022/02/03 23:30:57;;;;;;;22.58;8.75;;;6.70;99.90;;;;;;5086854;28;20031;-73
2022/02/03 23:33:23;;;;;;;27.42;10.45;;;6.70;99.90;;;;;;5062500;28;20017;-73
2022/02/03 23:35:50;;;;;;;21.77;7.78;;;6.70;99.90;;;;;;5085485;28;20501;-73
